createdAt,value
2019-04-29T00:01:07.273Z,6.40
2019-04-29T00:03:34.917Z,6.43
2019-04-29T00:06:02.749Z,6.41
2019-04-29T00:08:29.936Z,6.36
2019-04-29T00:10:57.003Z,6.39
2019-04-29T00:13:24.164Z,6.43
2019-04-29T00:16:11.031Z,6.41
2019-04-29T00:18:56.396Z,6.39
2019-04-29T00:21:24.313Z,6.46
2019-04-29T00:24:03.227Z,6.35
2019-04-29T00:26:20.664Z,6.25
2019-04-29T00:28:50.362Z,6.27
2019-04-29T00:31:16.884Z,6.28
2019-04-29T00:33:44.205Z,6.38
2019-04-29T00:36:11.589Z,6.33
2019-04-29T00:39:04.122Z,6.26
2019-04-29T00:41:46.001Z,6.00
2019-04-29T00:44:14.469Z,5.72
2019-04-29T00:46:41.509Z,5.62
2019-04-29T00:49:08.748Z,5.55
2019-04-29T00:51:39.333Z,5.54
2019-04-29T00:54:25.424Z,5.58
2019-04-29T00:56:52.449Z,5.48
2019-04-29T00:59:19.533Z,5.40
2019-04-29T01:01:46.630Z,5.23
2019-04-29T01:04:13.876Z,5.02
2019-04-29T01:06:40.906Z,4.81
2019-04-29T01:09:10.919Z,4.70
2019-04-29T01:11:38.650Z,4.90
2019-04-29T01:14:05.719Z,5.22
2019-04-29T01:16:32.789Z,5.51
2019-04-29T01:18:59.823Z,5.66
2019-04-29T01:21:26.857Z,5.68
2019-04-29T01:23:53.948Z,5.77
2019-04-29T01:26:40.578Z,5.76
2019-04-29T01:29:08.787Z,5.60
2019-04-29T01:31:35.834Z,5.54
2019-04-29T01:34:18.205Z,5.56
2019-04-29T01:36:45.814Z,5.50
2019-04-29T01:39:13.172Z,5.44
2019-04-29T01:42:02.904Z,5.45
2019-04-29T01:44:31.886Z,5.40
2019-04-29T01:46:58.993Z,5.36
2019-04-29T01:49:26.305Z,5.34
2019-04-29T01:51:53.366Z,5.28
2019-04-29T01:54:20.421Z,5.22
2019-04-29T01:56:47.511Z,5.26
2019-04-29T01:59:15.640Z,5.36
2019-04-29T02:01:42.710Z,5.43
2019-04-29T02:04:09.767Z,5.46
2019-04-29T02:06:36.821Z,5.44
2019-04-29T02:09:09.951Z,5.59
2019-04-29T02:11:36.523Z,5.77
2019-04-29T02:14:03.820Z,5.68
2019-04-29T02:16:30.868Z,5.65
2019-04-29T02:18:57.924Z,5.57
2019-04-29T02:21:26.879Z,5.54
2019-04-29T02:24:03.373Z,5.42
2019-04-29T02:26:30.874Z,5.31
2019-04-29T02:28:57.951Z,5.27
2019-04-29T02:31:43.959Z,5.31
2019-04-29T02:34:12.389Z,5.31
2019-04-29T02:36:39.786Z,5.33
2019-04-29T02:39:34.902Z,5.30
2019-04-29T02:42:21.184Z,5.29
2019-04-29T02:44:49.368Z,5.26
2019-04-29T02:47:16.400Z,5.20
2019-04-29T02:49:44.548Z,5.22
2019-04-29T02:52:12.234Z,5.27
2019-04-29T02:54:39.307Z,5.22
2019-04-29T02:57:24.304Z,5.13
2019-04-29T02:59:57.892Z,5.06
2019-04-29T03:02:33.203Z,5.03
2019-04-29T03:05:18.435Z,5.10
2019-04-29T03:07:46.933Z,5.19
2019-04-29T03:10:15.847Z,5.20
2019-04-29T03:12:45.616Z,5.25
2019-04-29T03:15:19.564Z,5.24
2019-04-29T03:17:46.889Z,5.20
2019-04-29T03:20:19.958Z,5.12
2019-04-29T03:22:47.373Z,5.09
2019-04-29T03:25:14.429Z,5.16
2019-04-29T03:27:42.560Z,5.18
2019-04-29T03:30:10.011Z,5.17
2019-04-29T03:32:37.017Z,5.22
2019-04-29T03:35:05.851Z,5.35
2019-04-29T03:37:34.555Z,5.51
2019-04-29T03:40:01.622Z,5.73
2019-04-29T03:42:28.950Z,5.69
2019-04-29T03:44:56.319Z,5.66
2019-04-29T03:47:24.475Z,5.73
2019-04-29T03:49:52.644Z,5.68
2019-04-29T03:52:19.677Z,5.42
2019-04-29T03:54:46.742Z,5.16
2019-04-29T03:57:15.463Z,5.10
2019-04-29T03:59:42.574Z,5.06
2019-04-29T04:02:26.616Z,5.10
2019-04-29T04:05:07.725Z,5.22
2019-04-29T04:07:52.608Z,5.39
2019-04-29T04:10:19.716Z,5.52
2019-04-29T04:12:48.547Z,5.46
2019-04-29T04:15:17.717Z,5.40
2019-04-29T04:17:51.962Z,5.62
2019-04-29T04:20:19.155Z,5.70
2019-04-29T04:22:46.821Z,5.55
2019-04-29T04:25:16.720Z,5.53
2019-04-29T04:27:45.169Z,5.49
2019-04-29T04:30:12.474Z,5.60
2019-04-29T04:32:39.548Z,5.70
2019-04-29T04:35:07.082Z,5.75
2019-04-29T04:37:37.470Z,5.86
2019-04-29T04:40:05.336Z,5.83
2019-04-29T04:42:32.390Z,5.98
2019-04-29T04:44:59.432Z,6.06
2019-04-29T04:47:26.490Z,6.09
2019-04-29T04:49:54.755Z,6.27
2019-04-29T04:52:21.807Z,6.44
2019-04-29T04:54:51.230Z,6.62
2019-04-29T04:57:18.215Z,6.74
2019-04-29T04:59:45.281Z,6.89
2019-04-29T05:02:12.649Z,7.15
2019-04-29T05:04:39.973Z,7.44
2019-04-29T05:07:07.003Z,7.67
2019-04-29T05:09:35.203Z,7.85
2019-04-29T05:12:02.226Z,8.08
2019-04-29T05:14:29.259Z,8.40
2019-04-29T05:16:56.631Z,8.71
2019-04-29T05:19:23.659Z,8.89
2019-04-29T05:21:50.861Z,8.68
2019-04-29T05:24:21.321Z,8.98
2019-04-29T05:26:48.668Z,9.40
2019-04-29T05:29:17.738Z,9.78
2019-04-29T05:31:46.510Z,10.11
2019-04-29T05:34:14.339Z,10.31
2019-04-29T05:36:49.187Z,10.45
2019-04-29T05:39:20.678Z,10.78
2019-04-29T05:41:48.893Z,10.82
2019-04-29T05:44:33.987Z,11.22
2019-04-29T05:47:07.118Z,11.66
2019-04-29T05:49:41.655Z,11.95
2019-04-29T05:52:39.180Z,12.03
2019-04-29T05:55:04.160Z,11.82
2019-04-29T05:57:31.189Z,11.73
2019-04-29T05:59:58.296Z,11.37
2019-04-29T06:02:33.687Z,11.63
2019-04-29T06:04:54.257Z,12.56
2019-04-29T06:07:21.872Z,13.26
2019-04-29T06:09:50.247Z,12.05
2019-04-29T06:12:18.924Z,10.88
2019-04-29T06:14:46.025Z,11.01
2019-04-29T06:17:14.186Z,11.89
2019-04-29T06:19:41.257Z,12.71
2019-04-29T06:22:08.345Z,13.44
2019-04-29T06:24:41.093Z,14.10
2019-04-29T06:27:10.560Z,14.84
2019-04-29T06:29:37.623Z,15.41
2019-04-29T06:32:06.258Z,16.05
2019-04-29T06:34:35.523Z,16.72
2019-04-29T06:37:03.402Z,17.12
2019-04-29T06:39:30.604Z,16.95
2019-04-29T06:41:57.988Z,17.30
2019-04-29T06:44:25.165Z,17.83
2019-04-29T06:46:54.444Z,17.96
2019-04-29T06:49:21.207Z,17.85
2019-04-29T06:51:48.224Z,17.02
2019-04-29T06:54:15.261Z,15.51
2019-04-29T06:56:42.350Z,15.53
2019-04-29T06:59:11.984Z,16.51
2019-04-29T07:01:38.758Z,15.27
2019-04-29T07:04:06.018Z,16.21
2019-04-29T07:06:33.075Z,16.97
2019-04-29T07:09:00.125Z,17.37
2019-04-29T07:11:31.840Z,17.83
2019-04-29T07:13:59.348Z,18.10
2019-04-29T07:16:31.624Z,18.07
2019-04-29T07:18:55.836Z,17.97
2019-04-29T07:21:23.051Z,18.12
2019-04-29T07:23:50.089Z,18.51
2019-04-29T07:26:19.025Z,19.09
2019-04-29T07:28:48.774Z,19.71
2019-04-29T07:31:15.020Z,19.89
2019-04-29T07:33:42.142Z,19.62
2019-04-29T07:36:11.117Z,19.79
2019-04-29T07:38:41.967Z,20.25
2019-04-29T07:41:10.023Z,20.45
2019-04-29T07:43:38.648Z,20.07
2019-04-29T07:46:20.069Z,19.60
2019-04-29T07:49:00.356Z,20.32
2019-04-29T07:51:17.114Z,20.79
2019-04-29T07:53:45.388Z,21.23
2019-04-29T07:56:12.993Z,21.46
2019-04-29T07:58:40.125Z,18.32
2019-04-29T08:01:07.219Z,18.81
2019-04-29T08:03:34.600Z,19.66
2019-04-29T08:06:01.940Z,17.46
2019-04-29T08:08:31.838Z,18.94
2019-04-29T08:10:58.934Z,18.30
2019-04-29T08:13:27.103Z,17.63
2019-04-29T08:15:54.253Z,18.50
2019-04-29T08:18:21.392Z,20.22
2019-04-29T08:20:48.497Z,21.38
2019-04-29T08:23:15.717Z,20.15
2019-04-29T08:25:42.872Z,20.68
2019-04-29T08:28:09.946Z,18.36
2019-04-29T08:30:37.135Z,18.82
2019-04-29T08:33:07.500Z,19.58
2019-04-29T08:35:36.760Z,21.34
2019-04-29T08:38:03.431Z,20.73
2019-04-29T08:40:34.025Z,19.39
2019-04-29T08:43:11.673Z,15.65
2019-04-29T08:45:44.541Z,17.09
2019-04-29T08:48:11.572Z,19.85
2019-04-29T08:50:38.630Z,21.33
2019-04-29T08:53:05.931Z,22.58
2019-04-29T08:55:36.176Z,23.47
2019-04-29T08:58:02.310Z,22.68
2019-04-29T09:00:29.371Z,22.38
2019-04-29T09:02:56.468Z,23.39
2019-04-29T09:05:23.528Z,24.31
2019-04-29T09:07:52.488Z,23.39
2019-04-29T09:10:19.692Z,21.03
2019-04-29T09:12:46.726Z,21.30
2019-04-29T09:15:16.343Z,19.34
2019-04-29T09:17:43.437Z,19.98
2019-04-29T09:20:10.943Z,21.67
2019-04-29T09:22:48.196Z,22.11
2019-04-29T09:25:46.947Z,19.78
2019-04-29T09:28:18.136Z,21.13
2019-04-29T09:30:43.370Z,17.69
2019-04-29T09:33:13.233Z,17.48
2019-04-29T09:35:40.548Z,18.90
2019-04-29T09:38:07.732Z,19.77
2019-04-29T09:40:40.928Z,18.69
2019-04-29T09:43:32.931Z,19.47
2019-04-29T09:46:13.152Z,21.23
2019-04-29T09:48:40.495Z,22.30
2019-04-29T09:51:17.385Z,22.94
2019-04-29T09:53:36.474Z,23.79
2019-04-29T09:56:04.174Z,22.23
2019-04-29T09:58:31.434Z,19.95
2019-04-29T10:01:19.147Z,20.51
2019-04-29T10:04:08.438Z,21.77
2019-04-29T10:06:37.003Z,23.23
2019-04-29T10:09:07.467Z,24.25
2019-04-29T10:11:36.188Z,24.67
2019-04-29T10:14:04.120Z,25.35
2019-04-29T10:16:52.845Z,26.26
2019-04-29T10:19:35.321Z,24.54
2019-04-29T10:22:02.367Z,24.02
2019-04-29T10:24:29.421Z,23.67
2019-04-29T10:26:56.898Z,25.19
2019-04-29T10:29:25.962Z,26.00
2019-04-29T10:31:53.535Z,26.65
2019-04-29T10:34:20.888Z,27.00
2019-04-29T10:36:52.245Z,27.11
2019-04-29T10:39:36.316Z,26.58
2019-04-29T10:42:04.738Z,26.93
2019-04-29T10:44:46.801Z,27.73
2019-04-29T10:47:33.472Z,27.83
2019-04-29T10:50:04.785Z,25.71
2019-04-29T10:52:34.572Z,26.18
2019-04-29T10:55:01.426Z,27.13
2019-04-29T10:57:29.347Z,27.38
2019-04-29T11:00:02.848Z,26.92
2019-04-29T11:02:38.731Z,19.47
2019-04-29T11:05:28.636Z,20.20
2019-04-29T11:08:04.357Z,22.17
2019-04-29T11:10:31.975Z,21.76
2019-04-29T11:13:11.746Z,23.29
2019-04-29T11:15:45.017Z,23.37
2019-04-29T11:18:10.093Z,23.83
2019-04-29T11:20:44.643Z,24.13
2019-04-29T11:23:30.479Z,20.42
2019-04-29T11:26:17.443Z,20.02
2019-04-29T11:28:46.977Z,22.24
2019-04-29T11:31:18.919Z,21.72
2019-04-29T11:33:56.891Z,19.42
2019-04-29T11:36:24.747Z,20.31
2019-04-29T11:38:51.808Z,20.30
2019-04-29T11:41:20.767Z,22.52
2019-04-29T11:43:50.992Z,25.02
2019-04-29T11:46:20.951Z,24.97
2019-04-29T11:48:48.146Z,26.97
2019-04-29T11:51:27.821Z,29.59
2019-04-29T11:53:57.988Z,30.83
2019-04-29T11:56:25.070Z,27.74
2019-04-29T11:59:17.240Z,32.12
2019-04-29T12:01:53.328Z,33.36
2019-04-29T12:04:28.660Z,29.48
2019-04-29T12:06:56.262Z,27.85
2019-04-29T12:09:25.442Z,23.54
2019-04-29T12:11:53.650Z,20.18
2019-04-29T12:14:45.178Z,18.20
2019-04-29T12:17:18.271Z,16.39
2019-04-29T12:19:46.080Z,17.00
2019-04-29T12:22:26.958Z,17.97
2019-04-29T12:24:42.180Z,18.63
2019-04-29T12:27:09.346Z,18.31
2019-04-29T12:29:36.421Z,17.65
2019-04-29T12:32:24.976Z,18.19
2019-04-29T12:35:11.663Z,18.72
2019-04-29T12:38:00.660Z,19.71
2019-04-29T12:41:03.718Z,20.74
2019-04-29T12:43:48.599Z,21.91
2019-04-29T12:46:21.942Z,24.27
2019-04-29T12:48:49.144Z,22.28
2019-04-29T12:51:17.064Z,21.57
2019-04-29T12:53:44.846Z,21.13
2019-04-29T12:56:12.813Z,19.10
2019-04-29T12:58:39.892Z,18.98
2019-04-29T13:01:23.611Z,18.00
2019-04-29T13:04:10.816Z,16.87
2019-04-29T13:07:12.603Z,16.53
2019-04-29T13:09:41.933Z,16.86
2019-04-29T13:12:19.229Z,16.60
2019-04-29T13:18:28.804Z,16.15
2019-04-29T13:21:09.135Z,16.70
2019-04-29T13:23:34.851Z,16.57
2019-04-29T13:25:56.158Z,16.83
2019-04-29T13:28:30.400Z,17.15
2019-04-29T13:33:22.277Z,17.26
2019-04-29T13:33:22.886Z,17.36
2019-04-29T13:35:50.019Z,17.25
2019-04-29T13:38:19.416Z,16.93
2019-04-29T13:41:12.894Z,17.43
2019-04-29T13:43:35.588Z,16.77
2019-04-29T13:46:27.411Z,15.72
2019-04-29T13:49:13.441Z,15.39
2019-04-29T13:51:41.508Z,15.44
2019-04-29T13:54:14.544Z,15.30
2019-04-29T13:56:55.616Z,15.29
2019-04-29T13:59:49.073Z,15.53
2019-04-29T14:02:32.302Z,15.40
2019-04-29T14:05:02.193Z,15.36
2019-04-29T14:07:29.988Z,15.70
2019-04-29T14:09:57.433Z,14.90
2019-04-29T14:12:47.884Z,14.37
2019-04-29T14:14:58.473Z,13.66
2019-04-29T14:17:27.017Z,13.11
2019-04-29T14:19:57.117Z,12.90
2019-04-29T14:22:24.594Z,12.93
2019-04-29T14:24:51.830Z,13.01
2019-04-29T14:27:24.943Z,13.56
2019-04-29T14:29:58.219Z,14.22
2019-04-29T14:32:35.945Z,13.70
2019-04-29T14:35:11.894Z,13.40
2019-04-29T14:37:39.446Z,13.38
2019-04-29T14:40:09.283Z,13.95
2019-04-29T14:42:56.837Z,13.95
2019-04-29T14:45:38.372Z,13.51
2019-04-29T14:48:20.793Z,13.42
2019-04-29T14:50:53.600Z,13.10
2019-04-29T14:53:19.549Z,12.91
2019-04-29T14:55:46.188Z,12.57
2019-04-29T14:58:13.225Z,12.41
2019-04-29T15:01:06.158Z,12.11
2019-04-29T15:03:50.783Z,12.57
2019-04-29T15:06:18.042Z,13.07
2019-04-29T15:08:45.093Z,13.29
2019-04-29T15:11:12.512Z,13.75
2019-04-29T15:13:43.167Z,14.14
2019-04-29T15:16:16.359Z,14.55
2019-04-29T15:18:52.869Z,14.72
2019-04-29T15:21:32.592Z,14.73
2019-04-29T15:23:59.035Z,14.56
2019-04-29T15:26:26.198Z,14.48
2019-04-29T15:28:53.267Z,14.26
2019-04-29T15:31:21.298Z,14.06
2019-04-29T15:33:48.508Z,13.99
2019-04-29T15:36:15.811Z,14.11
2019-04-29T15:38:43.046Z,14.20
2019-04-29T15:41:11.391Z,14.18
2019-04-29T15:43:46.964Z,14.29
2019-04-29T15:46:11.455Z,14.25
2019-04-29T15:48:36.794Z,14.27
2019-04-29T15:51:03.905Z,14.07
2019-04-29T15:53:33.891Z,14.04
2019-04-29T15:56:07.161Z,13.94
2019-04-29T15:58:30.806Z,13.82
2019-04-29T16:01:11.480Z,13.90
2019-04-29T16:03:27.003Z,14.22
2019-04-29T16:06:21.762Z,14.43
2019-04-29T16:08:59.167Z,14.32
2019-04-29T16:11:44.592Z,14.09
2019-04-29T16:14:16.865Z,14.09
2019-04-29T16:16:43.942Z,14.01
2019-04-29T16:19:11.061Z,13.96
2019-04-29T16:21:41.549Z,14.04
2019-04-29T16:24:25.018Z,13.94
2019-04-29T16:26:36.232Z,13.86
2019-04-29T16:29:12.331Z,13.51
2019-04-29T16:31:32.873Z,13.54
2019-04-29T16:34:01.225Z,13.54
2019-04-29T16:36:30.107Z,13.63
2019-04-29T16:38:57.169Z,13.73
2019-04-29T16:41:42.759Z,13.94
2019-04-29T16:44:33.973Z,13.92
2019-04-29T16:46:40.506Z,13.67
2019-04-29T16:49:07.647Z,13.67
2019-04-29T16:51:34.712Z,13.61
2019-04-29T16:54:02.909Z,13.75
2019-04-29T16:56:30.245Z,13.25
2019-04-29T16:58:57.329Z,13.17
2019-04-29T17:01:24.870Z,13.20
2019-04-29T17:03:52.266Z,13.38
2019-04-29T17:06:19.486Z,12.80
2019-04-29T17:09:05.550Z,12.41
2019-04-29T17:11:36.361Z,11.76
2019-04-29T17:14:12.986Z,12.04
2019-04-29T17:16:42.316Z,12.61
2019-04-29T17:19:09.584Z,12.67
2019-04-29T17:21:38.544Z,12.87
2019-04-29T17:24:05.728Z,13.05
2019-04-29T17:27:05.615Z,13.13
2019-04-29T17:30:02.551Z,13.38
2019-04-29T17:32:50.622Z,13.45
2019-04-29T17:35:21.479Z,13.57
2019-04-29T17:37:48.463Z,13.48
2019-04-29T17:40:20.889Z,13.33
2019-04-29T17:42:55.387Z,13.25
2019-04-29T17:45:33.686Z,13.15
2019-04-29T17:48:20.514Z,13.12
2019-04-29T17:50:56.900Z,13.19
2019-04-29T17:53:35.464Z,13.35
2019-04-29T17:56:25.346Z,13.41
2019-04-29T17:58:58.402Z,13.50
2019-04-29T18:01:43.371Z,13.42
2019-04-29T18:04:27.738Z,13.36
2019-04-29T18:07:12.503Z,13.21
2019-04-29T18:09:48.840Z,13.01
2019-04-29T18:12:22.135Z,12.69
2019-04-29T18:14:50.168Z,12.42
2019-04-29T18:17:27.153Z,12.51
2019-04-29T18:20:00.164Z,12.58
2019-04-29T18:22:45.166Z,12.52
2019-04-29T18:25:30.819Z,12.48
2019-04-29T18:27:53.181Z,12.21
2019-04-29T18:30:34.673Z,11.92
2019-04-29T18:32:51.457Z,11.95
2019-04-29T18:35:18.731Z,12.10
2019-04-29T18:37:46.124Z,12.14
2019-04-29T18:40:16.083Z,11.93
2019-04-29T18:42:46.636Z,11.71
2019-04-29T18:45:20.041Z,11.60
2019-04-29T18:47:47.308Z,12.01
2019-04-29T18:50:15.863Z,12.37
2019-04-29T18:52:43.217Z,12.57
2019-04-29T18:55:10.503Z,12.47
2019-04-29T18:57:37.582Z,12.37
2019-04-29T19:00:11.678Z,12.57
2019-04-29T19:02:45.068Z,12.60
2019-04-29T19:05:17.298Z,12.38
2019-04-29T19:07:55.001Z,12.36
2019-04-29T19:10:14.671Z,12.29
2019-04-29T19:12:42.794Z,11.98
2019-04-29T19:15:12.033Z,11.80
2019-04-29T19:17:41.373Z,12.10
2019-04-29T19:20:12.945Z,12.22
2019-04-29T19:22:44.024Z,12.35
2019-04-29T19:25:12.101Z,12.61
2019-04-29T19:27:40.037Z,12.67
2019-04-29T19:30:08.744Z,12.64
2019-04-29T19:32:49.330Z,12.47
2019-04-29T19:35:17.125Z,12.45
2019-04-29T19:37:45.391Z,12.37
2019-04-29T19:40:16.676Z,12.55
2019-04-29T19:42:47.078Z,12.52
2019-04-29T19:45:17.636Z,11.98
2019-04-29T19:47:52.027Z,11.30
2019-04-29T19:50:19.979Z,11.03
2019-04-29T19:52:47.207Z,11.23
2019-04-29T19:55:15.766Z,11.73
2019-04-29T19:57:50.235Z,11.70
2019-04-29T20:00:13.388Z,11.39
2019-04-29T20:02:46.407Z,11.27
2019-04-29T20:05:17.309Z,11.33
2019-04-29T20:07:49.743Z,11.07
2019-04-29T20:10:16.042Z,11.03
2019-04-29T20:12:46.182Z,11.01
2019-04-29T20:15:16.034Z,11.29
2019-04-29T20:18:23.380Z,11.20
2019-04-29T20:21:07.814Z,11.20
2019-04-29T20:23:26.343Z,11.14
2019-04-29T20:26:12.889Z,11.52
2019-04-29T20:28:27.363Z,11.53
2019-04-29T20:31:08.078Z,11.97
2019-04-29T20:33:28.128Z,12.51
2019-04-29T20:36:02.363Z,12.59
2019-04-29T20:38:41.330Z,12.63
2019-04-29T20:41:12.983Z,12.77
2019-04-29T20:43:39.906Z,12.23
2019-04-29T20:46:13.258Z,11.88
2019-04-29T20:48:41.589Z,11.98
2019-04-29T20:51:13.245Z,11.63
2019-04-29T20:53:46.132Z,11.54
2019-04-29T20:56:23.773Z,11.18
2019-04-29T20:58:46.225Z,11.06
2019-04-29T21:01:23.080Z,11.29
2019-04-29T21:03:53.904Z,11.38
2019-04-29T21:06:19.610Z,11.55
2019-04-29T21:08:52.214Z,11.31
2019-04-29T21:11:40.021Z,10.90
2019-04-29T21:14:33.842Z,10.85
2019-04-29T21:17:02.233Z,10.72
2019-04-29T21:19:27.556Z,10.77
2019-04-29T21:21:55.187Z,10.72
2019-04-29T21:24:25.128Z,10.68
2019-04-29T21:26:52.382Z,10.84
2019-04-29T21:29:19.651Z,11.00
2019-04-29T21:31:50.733Z,11.04
2019-04-29T21:34:17.538Z,10.94
2019-04-29T21:37:22.709Z,10.88
2019-04-29T21:39:56.810Z,10.90
2019-04-29T21:42:35.390Z,10.83
2019-04-29T21:45:03.990Z,11.03
2019-04-29T21:47:41.772Z,11.29
2019-04-29T21:50:00.436Z,11.03
2019-04-29T21:52:27.539Z,11.01
2019-04-29T21:54:56.865Z,10.92
2019-04-29T21:57:25.626Z,10.98
2019-04-29T21:59:52.683Z,11.02
2019-04-29T22:02:21.060Z,10.93
2019-04-29T22:04:48.375Z,10.89
2019-04-29T22:07:18.758Z,10.69
2019-04-29T22:09:50.009Z,10.62
2019-04-29T22:12:20.376Z,10.63
2019-04-29T22:14:52.767Z,10.51
2019-04-29T22:17:15.310Z,10.48
2019-04-29T22:19:42.672Z,10.48
2019-04-29T22:22:10.013Z,10.53
2019-04-29T22:24:37.747Z,10.42
2019-04-29T22:27:08.186Z,10.39
2019-04-29T22:29:37.473Z,10.33
2019-04-29T22:32:07.849Z,10.31
2019-04-29T22:34:35.437Z,10.38
2019-04-29T22:37:03.013Z,10.44
2019-04-29T22:39:30.352Z,10.37
2019-04-29T22:42:05.378Z,10.33
2019-04-29T22:44:32.419Z,10.38
2019-04-29T22:46:59.811Z,10.37
2019-04-29T22:49:29.234Z,10.37
2019-04-29T22:51:57.126Z,10.27
2019-04-29T22:54:24.606Z,10.22
2019-04-29T22:56:53.862Z,10.25
2019-04-29T22:59:20.789Z,10.46
2019-04-29T23:01:50.491Z,10.30
2019-04-29T23:04:18.091Z,10.23
2019-04-29T23:06:47.984Z,10.31
2019-04-29T23:09:14.078Z,10.37
2019-04-29T23:11:41.165Z,10.34
2019-04-29T23:14:10.014Z,10.35
2019-04-29T23:16:37.584Z,10.33
2019-04-29T23:19:05.254Z,10.45
2019-04-29T23:22:07.401Z,10.38
2019-04-29T23:24:53.146Z,10.50
2019-04-29T23:27:20.299Z,10.38
2019-04-29T23:29:47.371Z,10.37
2019-04-29T23:32:15.282Z,10.35
2019-04-29T23:34:42.703Z,10.35
2019-04-29T23:37:11.563Z,10.34
2019-04-29T23:39:39.057Z,10.34
2019-04-29T23:42:12.247Z,10.39
2019-04-29T23:44:37.724Z,10.40
2019-04-29T23:47:05.124Z,10.58
2019-04-29T23:49:35.460Z,10.40
2019-04-29T23:52:02.467Z,10.54
2019-04-29T23:54:29.516Z,10.48
2019-04-29T23:57:23.649Z,10.39
